Flight Track Log - Related Links

Times and Time Zones

All times are in EDT time to prevent confusion due to time zone crossing. See the TMC456 flight status page for this flight to view local times or setup timezone preferences in your user account.


Time Position Orientation Groundspeed Altitude Reporting Facility
EDT Latitude Longitude Course Direction KTS MPH feet Rate Location/Type
Tue 11:12:49 PM 36.0761 -115.1283 89° East 153 176 3,000  Level Los Angeles Center
Tue 11:14:07 PM 36.0772 -115.0328 89° East 222 255 5,000 2,072 Climbing Los Angeles Center
Tue 11:15:08 PM 36.0789 -114.9483 89° East 243 280 7,800 2,164 Climbing Los Angeles Center
Tue 11:16:09 PM 36.0922 -114.8567 80° East 278 320 9,400 1,452 Climbing Los Angeles Center
Tue 11:17:12 PM 36.1072 -114.7586 79° East 303 349 10,800 1,694 Climbing Los Angeles Center
Tue 11:18:13 PM 36.1256 -114.6503 78° East 320 368 12,900 2,244 Climbing Los Angeles Center
Tue 11:19:15 PM 36.1425 -114.5461 79° East 314 361 15,400 1,790 Climbing Los Angeles Center
Tue 11:20:17 PM 36.1592 -114.4403 79° East 313 360 16,600 1,415 Climbing Los Angeles Center
Tue 11:21:18 PM 36.1839 -114.3008 78° East 344 396 18,300 1,415 Climbing Los Angeles Center
Tue 11:22:20 PM 36.2022 -114.1803 79° East 354 407 19,500 1,122 Climbing Los Angeles Center
Tue 11:23:21 PM 36.2347 -114.0608 71° East 365 420 20,600 1,073 Climbing Los Angeles Center
Tue 11:24:23 PM 36.2747 -113.9397 68° East 377 434 21,700 1,065 Climbing Los Angeles Center
Tue 11:25:25 PM 36.3161 -113.8167 67° East 382 440 22,800 1,073 Climbing Los Angeles Center
Tue 11:26:26 PM 36.3581 -113.6931 67° East 387 445 23,900 1,073 Climbing Los Angeles Center
Tue 11:27:28 PM 36.3981 -113.5664 69° East 390 449 25,000 1,171 Climbing Los Angeles Center
Tue 11:28:29 PM 36.4481 -113.4172 67° East 391 450 26,300 1,171 Climbing Los Angeles Center
Tue 11:29:31 PM 36.4886 -113.2883 69° East 397 457 27,400 871 Climbing Los Angeles Center
Tue 11:30:33 PM 36.5250 -113.1789 67° East 397 457 28,100 829 Climbing Los Angeles Center
Tue 11:31:34 PM 36.5775 -113.0164 68° East 418 481 29,100 927 Climbing Los Angeles Center
Tue 11:32:36 PM 36.6228 -112.8781 68° East 427 491 30,000 927 Climbing Los Angeles Center
Tue 11:33:37 PM 36.6683 -112.7372 68° East 437 503 31,000 976 Climbing Los Angeles Center
Tue 11:34:39 PM 36.7139 -112.5942 68° East 441 507 32,000 927 Climbing Los Angeles Center
Tue 11:35:40 PM 36.7594 -112.4511 68° East 443 510 32,900 927 Climbing Los Angeles Center
Tue 11:36:42 PM 36.8042 -112.3089 69° East 444 511 33,900 976 Climbing Los Angeles Center
Tue 11:37:43 PM 36.8492 -112.1664 68° East 444 511 34,900 1,073 Climbing Los Angeles Center
Tue 11:38:45 PM 36.9014 -111.9989 69° East 439 505 36,100 1,073 Climbing Los Angeles Center
Tue 11:39:46 PM 36.9436 -111.8617 69° East 430 495 37,100 732 Climbing Los Angeles Center
Tue 11:40:48 PM 36.9861 -111.7247 69° East 428 493 37,600 488 Climbing Los Angeles Center
Tue 11:41:49 PM 37.0275 -111.5869 69° East 426 490 38,100 480 Climbing Los Angeles Center
Tue 11:42:28 PM 37.0572 -111.5033 66° East 429 494 38,400 480 Climbing Denver Center
Tue 11:43:29 PM 37.0983 -111.3636 70° East 429 494 38,900 295 Climbing Denver Center
Tue 11:44:30 PM 37.1408 -111.2236 69° East 431 496 39,000 49 Climbing Denver Center
Tue 11:45:32 PM 37.1933 -111.0497 69° East 443 510 39,000  Level Denver Center
Tue 11:46:33 PM 37.2383 -110.9017 69° East 453 521 39,000  Level Denver Center
Tue 11:47:34 PM 37.2783 -110.7503 72° East 456 525 39,000  Level Denver Center
Tue 11:48:35 PM 37.2978 -110.5917 81° East 461 531 39,000  Level Denver Center
Tue 11:49:37 PM 37.3186 -110.4325 81° East 463 533 39,000  Level Denver Center
Tue 11:50:38 PM 37.3403 -110.2717 80° East 464 534 39,000 148 Level Denver Center
Tue 11:51:39 PM 37.3619 -110.0961 81° East 468 539 39,300 344 Climbing Denver Center
Tue 11:52:40 PM 37.3817 -109.9433 81° East 465 535 39,700 492 Climbing Denver Center
Tue 11:53:41 PM 37.4036 -109.7675 81° East 459 528 40,300 492 Climbing Denver Center
Tue 11:54:42 PM 37.4214 -109.6200 81° East 449 517 40,700 344 Climbing Denver Center
Tue 11:55:43 PM 37.4394 -109.4731 81° East 444 511 41,000 146 Climbing Denver Center
Tue 11:56:45 PM 37.4603 -109.2997 81° East 446 513 41,000  Level Denver Center
Tue 11:57:46 PM 37.4778 -109.1503 82° East 448 516 41,000  Level Denver Center
Tue 11:58:47 PM 37.4961 -108.9997 81° East 453 521 41,000  Level Denver Center
Tue 11:59:48 PM 37.5156 -108.8214 82° East 455 524 41,000  Level Denver Center
Wed 12:00:49 AM 37.5339 -108.6689 81° East 456 525 41,000  Level Denver Center
Wed 12:01:50 AM 37.5500 -108.5131 83° East 464 534 41,000  Level Denver Center
Wed 12:02:51 AM 37.5706 -108.3300 82° East 466 536 41,000  Level Denver Center
Wed 12:03:52 AM 37.5878 -108.1778 82° East 465 535 41,000  Level Denver Center
Wed 12:04:53 AM 37.6050 -108.0214 82° East 466 536 41,000  Level Denver Center
Wed 12:05:54 AM 37.6242 -107.8386 82° East 467 537 41,000  Level Denver Center
Wed 12:06:55 AM 37.6403 -107.6825 83° East 469 540 41,000  Level Denver Center
Wed 12:07:56 AM 37.6572 -107.5253 82° East 469 540 41,000  Level Denver Center
Wed 12:08:57 AM 37.6753 -107.3417 83° East 470 541 41,000  Level Denver Center
Wed 12:09:58 AM 37.6917 -107.1853 82° East 470 541 41,000 98 Level Denver Center
Wed 12:10:59 AM 37.7067 -107.0275 83° East 471 542 41,200 246 Climbing Denver Center
Wed 12:12:00 AM 37.7253 -106.8467 83° East 470 541 41,500 246 Climbing Denver Center
Wed 12:13:01 AM 37.7389 -106.6922 84° East 464 534 41,700 246 Climbing Denver Center
Wed 12:14:02 AM 37.7558 -106.5139 83° East 460 529 42,000 298 Climbing Denver Center
Wed 12:15:02 AM 37.7722 -106.3628 82° East 458 527 42,300 248 Climbing Denver Center
Wed 12:16:03 AM 37.7856 -106.2136 84° East 451 519 42,500 246 Climbing Denver Center
Wed 12:17:04 AM 37.7992 -106.0403 84° East 446 513 42,800 295 Climbing Denver Center
Wed 12:18:05 AM 37.8139 -105.8861 83° East 443 510 43,100 98 Climbing Denver Center
Wed 12:19:06 AM 37.8264 -105.7336 84° East 437 503 43,000 -49 Descending Denver Center
Wed 12:20:07 AM 37.8400 -105.5758 84° East 441 507 43,000  Level Denver Center
Wed 12:21:08 AM 37.8542 -105.4228 83° East 444 511 43,000  Level Denver Center
Wed 12:22:09 AM 37.8672 -105.2667 84° East 445 512 43,000  Level Denver Center
Wed 12:23:09 AM 37.8808 -105.1103 84° East 445 512 43,000  Level Denver Center
Wed 12:24:10 AM 37.8939 -104.9561 84° East 445 512 43,000  Level Denver Center
Wed 12:25:11 AM 37.9064 -104.8000 84° East 442 509 43,000  Level Denver Center
Wed 12:26:12 AM 37.9192 -104.6467 84° East 441 507 43,000  Level Denver Center
Wed 12:27:13 AM 37.9314 -104.4919 84° East 441 507 43,000  Level Denver Center
Wed 12:28:14 AM 37.9425 -104.3361 85° East 441 507 43,000  Level Denver Center
Wed 12:29:14 AM 37.9544 -104.1794 84° East 442 509 43,000  Level Denver Center
Wed 12:30:15 AM 37.9661 -104.0231 85° East 442 509 43,000  Level Denver Center
Wed 12:31:16 AM 37.9789 -103.8653 84° East 444 511 43,000  Level Denver Center
Wed 12:32:17 AM 37.9883 -103.7097 86° East 444 511 43,000  Level Denver Center
Wed 12:33:17 AM 37.9989 -103.5536 85° East 443 510 43,000  Level Denver Center
Wed 12:34:18 AM 38.0094 -103.3972 85° East 443 510 43,000  Level Denver Center
Wed 12:35:19 AM 38.0192 -103.2394 85° East 447 514 43,000  Level Denver Center
Wed 12:36:20 AM 38.0297 -103.0828 85° East 447 514 43,000  Level Denver Center
Wed 12:37:20 AM 38.0408 -102.9150 85° East 447 514 43,000  Level Denver Center
Wed 12:38:21 AM 38.0511 -102.7417 86° East 444 511 43,000  Level Denver Center
Wed 12:39:22 AM 38.0606 -102.5936 85° East 443 510 43,000  Level Denver Center
Wed 12:40:22 AM 38.0700 -102.4439 85° East 443 510 43,000  Level Denver Center
Wed 12:41:23 AM 38.0792 -102.2717 86° East 443 510 43,000  Level Denver Center
Wed 12:42:24 AM 38.0875 -102.1233 86° East 442 509 43,000  Level Denver Center
Wed 12:43:24 AM 38.0961 -101.9744 86° East 442 509 43,000  Level Denver Center
Wed 12:44:25 AM 38.1064 -101.8014 86° East 442 509 43,000  Level Denver Center
Wed 12:45:25 AM 38.1136 -101.6531 86° East 440 506 43,000  Level Denver Center
Wed 12:46:26 AM 38.1219 -101.5044 86° East 440 506 43,000  Level Denver Center
Wed 12:47:27 AM 38.1306 -101.3311 86° East 440 506 43,000  Level Denver Center
Wed 12:48:27 AM 38.1383 -101.1833 86° East 440 506 43,000  Level Denver Center
Wed 12:49:28 AM 38.1453 -101.0342 87° East 440 506 43,000  Level Denver Center
Wed 12:50:29 AM 38.1519 -100.8853 87° East 439 505 43,000  Level Denver Center
Wed 12:51:29 AM 38.1608 -100.7117 86° East 439 505 43,000  Level Denver Center
Wed 12:52:30 AM 38.1675 -100.5636 87° East 439 505 43,000  Level Denver Center
Wed 12:53:31 AM 38.1733 -100.4167 87° East 438 504 43,000  Level Denver Center
Wed 12:54:31 AM 38.1808 -100.2439 87° East 438 504 43,000  Level Denver Center
Wed 12:55:53 AM 38.1875 -100.0472 87° East 437 503 43,000  Level Kansas City Center
Wed 12:56:54 AM 38.1928 -99.9006 87° East 436 502 43,000  Level Kansas City Center
Wed 12:57:54 AM 38.1981 -99.7286 88° East 436 502 43,000  Level Kansas City Center
Wed 12:58:55 AM 38.2047 -99.5831 87° East 436 502 43,000  Level Kansas City Center
Wed 12:59:56 AM 38.2089 -99.4314 88° East 435 501 43,000  Level Kansas City Center
Wed 01:00:56 AM 38.2139 -99.2786 88° East 435 501 43,000  Level Kansas City Center
Wed 01:01:57 AM 38.2189 -99.1258 88° East 435 501 43,000  Level Kansas City Center
Wed 01:02:57 AM 38.2242 -98.9733 87° East 433 498 43,000  Level Kansas City Center
Wed 01:03:58 AM 38.2283 -98.8192 88° East 434 499 43,000  Level Kansas City Center
Wed 01:04:58 AM 38.2319 -98.6656 88° East 434 499 43,000  Level Kansas City Center
Wed 01:05:59 AM 38.2361 -98.5106 88° East 435 501 43,000  Level Kansas City Center
Wed 01:07:00 AM 38.2408 -98.3533 88° East 440 506 43,000  Level Kansas City Center
Wed 01:08:00 AM 38.2447 -98.1972 88° East 440 506 43,000  Level Kansas City Center
Wed 01:09:01 AM 38.2486 -98.0389 88° East 442 509 43,000  Level Kansas City Center
Wed 01:10:01 AM 38.2606 -97.8806 84° East 447 514 43,000  Level Kansas City Center
Wed 01:11:02 AM 38.2764 -97.7236 83° East 446 513 43,000  Level Kansas City Center
Wed 01:12:02 AM 38.2897 -97.5664 84° East 445 512 43,000  Level Kansas City Center
Wed 01:13:03 AM 38.3047 -97.4092 83° East 445 512 43,000  Level Kansas City Center
Wed 01:14:03 AM 38.3186 -97.2519 84° East 446 513 43,000  Level Kansas City Center
Wed 01:15:04 AM 38.3333 -97.0956 83° East 445 512 43,000  Level Kansas City Center
Wed 01:16:04 AM 38.3469 -96.9378 84° East 446 513 43,000  Level Kansas City Center
Wed 01:17:05 AM 38.3614 -96.7797 83° East 447 514 43,000  Level Kansas City Center
Wed 01:18:05 AM 38.3756 -96.6236 83° East 447 514 43,000  Level Kansas City Center
Wed 01:19:06 AM 38.3900 -96.4494 84° East 447 514 43,000  Level Kansas City Center
Wed 01:20:06 AM 38.4022 -96.2950 84° East 444 511 43,000  Level Kansas City Center
Wed 01:21:07 AM 38.4150 -96.1386 84° East 444 511 43,000  Level Kansas City Center
Wed 01:22:07 AM 38.4275 -95.9822 84° East 445 512 43,000  Level Kansas City Center
Wed 01:23:07 AM 38.4403 -95.8264 84° East 445 512 43,000  Level Kansas City Center
Wed 01:24:08 AM 38.4536 -95.6703 84° East 445 512 43,000  Level Kansas City Center
Wed 01:25:08 AM 38.4658 -95.5147 84° East 445 512 43,000  Level Kansas City Center
Wed 01:26:09 AM 38.4778 -95.3594 84° East 443 510 43,000  Level Kansas City Center
Wed 01:27:09 AM 38.4892 -95.2025 85° East 444 511 43,000  Level Kansas City Center
Wed 01:28:10 AM 38.5008 -95.0461 85° East 444 511 43,000  Level Kansas City Center
Wed 01:29:10 AM 38.5128 -94.8906 84° East 445 512 43,000  Level Kansas City Center
Wed 01:30:10 AM 38.5236 -94.7325 85° East 446 513 43,000  Level Kansas City Center
Wed 01:31:11 AM 38.5367 -94.5428 85° East 446 513 43,000  Level Kansas City Center
Wed 01:32:11 AM 38.5478 -94.3842 85° East 448 516 43,000  Level Kansas City Center
Wed 01:33:11 AM 38.5586 -94.2258 85° East 449 517 43,000  Level Kansas City Center
Wed 01:34:12 AM 38.5686 -94.0672 85° East 450 518 43,000  Level Kansas City Center
Wed 01:35:12 AM 38.5789 -93.9075 85° East 450 518 43,000  Level Kansas City Center
Wed 01:36:12 AM 38.5892 -93.7461 85° East 450 518 43,000  Level Kansas City Center
Wed 01:37:13 AM 38.6000 -93.5856 85° East 451 519 43,000  Level Kansas City Center
Wed 01:38:13 AM 38.6106 -93.4242 85° East 451 519 43,000  Level Kansas City Center
Wed 01:39:14 AM 38.6203 -93.2636 86° East 452 520 43,000  Level Kansas City Center
Wed 01:40:14 AM 38.6292 -93.1047 86° East 451 519 43,000  Level Kansas City Center
Wed 01:41:14 AM 38.6372 -92.9469 86° East 448 516 43,000  Level Kansas City Center
Wed 01:42:14 AM 38.6456 -92.7889 86° East 447 514 43,000  Level Kansas City Center
Wed 01:43:15 AM 38.6528 -92.6303 87° East 447 514 43,000 -496 Level Kansas City Center
Wed 01:44:15 AM 38.6611 -92.4706 86° East 446 513 42,000 -1,950 Descending Kansas City Center
Wed 01:45:15 AM 38.6700 -92.3044 86° East 454 522 39,100 -2,800 Descending Kansas City Center
Wed 01:46:15 AM 38.6786 -92.1317 86° East 466 536 36,400 -3,025 Descending Kansas City Center
Wed 01:47:16 AM 38.6858 -91.9658 87° East 469 540 33,000 -3,421 Descending Kansas City Center
Wed 01:48:16 AM 38.6922 -91.8031 87° East 463 533 29,500 -3,500 Descending Kansas City Center
Wed 01:49:16 AM 38.7000 -91.6494 86° East 439 505 26,000 -3,400 Descending Kansas City Center
Wed 01:50:16 AM 38.7064 -91.5064 87° East 428 493 22,700 -3,074 Descending Kansas City Center
Wed 01:51:17 AM 38.7119 -91.3658 87° East 405 466 19,800 -2,926 Descending Kansas City Center
Wed 01:52:17 AM 38.7167 -91.2383 87° East 372 428 16,800 -2,800 Descending Kansas City Center
Wed 01:53:17 AM 38.7144 -91.1169 91° East 349 402 14,200 -2,600 Descending Kansas City Center
Wed 01:54:17 AM 38.7119 -91.0003 92° East 335 386 11,600 -2,450 Descending Kansas City Center
Wed 01:55:17 AM 38.7100 -90.8864 91° East 326 375 9,300 -2,231 Descending Kansas City Center
Wed 01:56:18 AM 38.7142 -90.7772 87° East 315 362 7,100 -1,884 Descending Kansas City Center
Wed 01:57:18 AM 38.7183 -90.6747 87° East 295 339 5,500 -1,550 Descending Kansas City Center
Wed 01:58:18 AM 38.7133 -90.5781 94° East 278 320 4,000 -744 Descending Kansas City Center
Wed 01:59:19 AM 38.7061 -90.4844 96° East 268 308 4,000 -198 Level Kansas City Center
Wed 02:00:19 AM 38.6861 -90.4003 107° East 261 300 3,600 -700 Descending Kansas City Center
Wed 02:01:19 AM 38.6569 -90.3306 118° Southeast 235 270 2,600 -1,050 Descending Kansas City Center
Wed 02:02:19 AM 38.6886 -90.2928 43° Northeast 190 219 1,500 -843 Descending Kansas City Center
Wed 02:03:20 AM 38.7300 -90.3189 334° Northwest 135 155 900 -446 Descending Kansas City Center
Wed 02:04:20 AM 38.7436 -90.3531 297° West 126 145 600 -300 Descending Kansas City Center

Login

Don't have an account? Register now (free) for customized features, flight alerts, and more!